Concepcion, Bolivia
Current Conditions -  °F | °C
As of 7:00 PM on Monday 24 Nov 2014 (Local Time) from SLSI Reporting Station
Clear Clear  
Wind Chill: 84°   Ceiling: Unl
Heat Index: 92°   Visibility: 6mi
Dew Point: 75°   Wind: 0mph
Humidity: 74%   Direction: NA
Pressure: 29.71"   Gusts: NA
Location:  16.25°S, 62.1°W
Report Text: SLSI 242300Z 00000KT 9999 NSC 29/24 Q1006
Loading
Personal Weather Stations






























Interactive Weather Map New forecast layout! Learn more

10-Day Weather Forecast

Advertisements
Track Severe Weather on mobile